createdAt,value
2023-09-27T00:00:00.691Z,84.50
2023-09-27T00:03:02.845Z,84.80
2023-09-27T00:06:05.227Z,84.80
2023-09-27T00:09:08.082Z,84.30
2023-09-27T00:12:11.522Z,83.40
2023-09-27T00:15:13.901Z,83.40
2023-09-27T00:18:16.202Z,83.70
2023-09-27T00:21:18.573Z,84.10
2023-09-27T00:24:20.766Z,84.10
2023-09-27T00:27:22.698Z,83.70
2023-09-27T00:30:24.918Z,83.10
2023-09-27T00:33:27.026Z,83.10
2023-09-27T00:36:29.108Z,83.50
2023-09-27T00:39:31.249Z,83.80
2023-09-27T00:42:33.542Z,83.80
2023-09-27T00:45:35.670Z,83.50
2023-09-27T00:48:38.083Z,83.20
2023-09-27T00:51:40.623Z,85.10
2023-09-27T00:54:42.673Z,85.70
2023-09-27T00:57:45.469Z,85.80
2023-09-27T01:00:51.198Z,85.30
2023-09-27T01:03:54.192Z,88.10
2023-09-27T01:06:56.769Z,86.70
2023-09-27T01:09:58.948Z,87.00
2023-09-27T01:13:01.412Z,87.40
2023-09-27T01:16:04.765Z,86.90
2023-09-27T01:19:08.984Z,87.40
2023-09-27T01:22:12.198Z,86.80
2023-09-27T01:25:18.069Z,85.70
2023-09-27T01:28:20.054Z,85.50
2023-09-27T01:31:22.068Z,86.30
2023-09-27T01:34:26.106Z,86.20
2023-09-27T01:37:28.189Z,86.20
2023-09-27T01:40:30.557Z,86.30
2023-09-27T01:43:32.871Z,85.40
2023-09-27T01:46:35.366Z,85.20
2023-09-27T01:49:37.416Z,85.00
2023-09-27T01:52:40.676Z,85.90
2023-09-27T01:55:42.690Z,85.40
2023-09-27T01:58:44.675Z,84.80
2023-09-27T02:01:46.761Z,85.30
2023-09-27T02:04:48.851Z,85.90
2023-09-27T02:07:51.038Z,85.20
2023-09-27T02:10:53.123Z,84.60
2023-09-27T02:13:55.257Z,84.50
2023-09-27T02:16:57.303Z,84.70
2023-09-27T02:19:59.401Z,84.60
2023-09-27T02:23:01.562Z,84.30
2023-09-27T02:26:03.730Z,83.60
2023-09-27T02:29:08.515Z,85.10
2023-09-27T02:32:10.904Z,85.10
2023-09-27T02:35:14.546Z,85.30
2023-09-27T02:38:16.687Z,85.10
2023-09-27T02:41:18.741Z,85.50
2023-09-27T02:44:20.883Z,85.40
2023-09-27T02:47:22.916Z,85.70
2023-09-27T02:50:25.038Z,85.30
2023-09-27T02:53:27.151Z,84.80
2023-09-27T02:56:29.512Z,85.10
2023-09-27T02:59:32.441Z,85.20
2023-09-27T03:02:34.850Z,85.70
2023-09-27T03:05:37.261Z,86.40
2023-09-27T03:08:39.557Z,86.40
2023-09-27T03:11:41.528Z,86.50
2023-09-27T03:14:43.559Z,85.90
2023-09-27T03:17:45.805Z,85.80
2023-09-27T03:20:48.280Z,85.60
2023-09-27T03:23:50.685Z,85.00
2023-09-27T03:26:55.161Z,85.30
2023-09-27T03:29:57.272Z,85.40
2023-09-27T03:32:59.367Z,85.10
2023-09-27T03:36:04.660Z,84.70
2023-09-27T03:39:08.192Z,85.20
2023-09-27T03:42:10.306Z,84.80
2023-09-27T03:45:14.489Z,84.50
2023-09-27T03:48:16.932Z,85.20
2023-09-27T03:51:25.732Z,84.80
2023-09-27T03:54:28.481Z,84.30
2023-09-27T03:57:30.731Z,86.20
2023-09-27T04:00:34.168Z,87.70
2023-09-27T04:03:36.325Z,87.70
2023-09-27T04:06:38.626Z,87.80
2023-09-27T04:09:40.674Z,88.20
2023-09-27T04:12:42.661Z,90.00
2023-09-27T04:15:44.715Z,91.40
2023-09-27T04:18:46.679Z,91.70
2023-09-27T04:21:48.672Z,91.90
2023-09-27T04:24:50.661Z,90.10
2023-09-27T04:27:52.699Z,93.20
2023-09-27T04:30:55.774Z,91.00
2023-09-27T04:33:57.798Z,89.10
2023-09-27T04:36:59.763Z,89.90
2023-09-27T04:40:01.996Z,89.70
2023-09-27T04:43:04.313Z,89.30
2023-09-27T04:46:06.461Z,90.50
2023-09-27T04:49:08.835Z,89.70
2023-09-27T04:52:11.228Z,90.10
2023-09-27T04:55:13.650Z,87.80
2023-09-27T04:58:15.952Z,87.80
2023-09-27T05:01:18.153Z,87.50
2023-09-27T05:04:20.403Z,87.60
2023-09-27T05:07:22.634Z,87.40
2023-09-27T05:10:24.625Z,86.80
2023-09-27T05:13:26.758Z,87.40
2023-09-27T05:16:28.689Z,87.60
2023-09-27T05:19:30.700Z,87.70
2023-09-27T05:22:32.696Z,87.30
2023-09-27T05:25:34.691Z,87.10
2023-09-27T05:28:36.798Z,86.40
2023-09-27T05:31:38.821Z,86.80
2023-09-27T05:34:41.006Z,87.10
2023-09-27T05:37:43.300Z,86.80
2023-09-27T05:40:48.396Z,86.00
2023-09-27T05:43:50.388Z,86.00
2023-09-27T05:46:52.431Z,86.10
2023-09-27T05:49:54.510Z,85.90
2023-09-27T05:52:56.574Z,86.00
2023-09-27T05:56:00.926Z,85.80
2023-09-27T05:59:05.196Z,85.40
2023-09-27T06:02:07.606Z,85.30
2023-09-27T06:05:09.872Z,85.90
2023-09-27T06:08:11.834Z,86.00
2023-09-27T06:11:13.903Z,85.90
2023-09-27T06:14:15.902Z,86.30
2023-09-27T06:17:18.330Z,85.70
2023-09-27T06:20:20.526Z,85.50
2023-09-27T06:23:22.561Z,85.70
2023-09-27T06:26:24.647Z,85.90
2023-09-27T06:29:26.885Z,85.90
2023-09-27T06:32:29.765Z,85.20
2023-09-27T06:35:31.826Z,85.40
2023-09-27T06:38:33.951Z,85.10
2023-09-27T06:41:35.973Z,84.10
2023-09-27T06:44:38.200Z,82.60
2023-09-27T06:47:44.073Z,82.50
2023-09-27T06:50:46.187Z,82.40
2023-09-27T06:53:48.279Z,83.00
2023-09-27T06:56:50.450Z,83.40
2023-09-27T06:59:52.575Z,83.00
2023-09-27T07:02:55.094Z,82.60
2023-09-27T07:05:57.164Z,81.60
2023-09-27T07:08:59.477Z,80.10
2023-09-27T07:12:01.751Z,79.60
2023-09-27T07:15:04.559Z,75.90
2023-09-27T07:18:06.815Z,75.50
2023-09-27T07:21:11.182Z,74.40
2023-09-27T07:24:13.268Z,73.90
2023-09-27T07:27:15.406Z,74.30
2023-09-27T07:30:17.555Z,73.20
2023-09-27T07:33:19.774Z,72.00
2023-09-27T07:36:22.347Z,70.20
2023-09-27T07:39:24.486Z,68.60
2023-09-27T07:42:26.636Z,66.90
2023-09-27T07:45:28.622Z,65.40
2023-09-27T07:48:32.867Z,65.80
2023-09-27T07:51:35.515Z,63.30
2023-09-27T07:54:37.521Z,62.00
2023-09-27T07:57:39.581Z,61.70
2023-09-27T08:00:42.106Z,60.30
2023-09-27T08:03:44.399Z,59.30
2023-09-27T08:06:48.892Z,59.00
2023-09-27T08:09:54.290Z,59.00
2023-09-27T08:12:59.490Z,59.80
2023-09-27T08:16:01.487Z,59.80
2023-09-27T08:19:03.500Z,57.10
2023-09-27T08:22:05.823Z,55.30
2023-09-27T08:25:11.794Z,55.60
2023-09-27T08:28:13.824Z,57.60
2023-09-27T08:31:15.897Z,57.50
2023-09-27T08:34:17.931Z,57.20
2023-09-27T08:37:19.956Z,55.70
2023-09-27T08:40:21.976Z,55.90
2023-09-27T08:43:27.730Z,56.50
2023-09-27T08:46:32.172Z,55.50
2023-09-27T08:49:34.970Z,55.30
2023-09-27T08:52:37.946Z,54.60
2023-09-27T08:55:40.019Z,55.40
2023-09-27T08:58:42.406Z,56.60
2023-09-27T09:01:46.013Z,53.20
2023-09-27T09:04:48.363Z,55.30
2023-09-27T09:07:50.399Z,51.70
2023-09-27T09:10:54.558Z,52.40
2023-09-27T09:14:00.564Z,53.90
2023-09-27T09:17:02.654Z,54.60
2023-09-27T09:20:06.889Z,51.80
2023-09-27T09:23:09.101Z,53.90
2023-09-27T09:26:11.462Z,54.60
2023-09-27T09:29:13.777Z,54.50
2023-09-27T09:32:16.852Z,54.20
2023-09-27T09:35:34.534Z,53.30
2023-09-27T09:38:36.915Z,54.00
2023-09-27T09:41:51.221Z,54.90
2023-09-27T09:45:02.849Z,53.30
2023-09-27T09:48:05.157Z,53.20
2023-09-27T09:51:08.773Z,53.20
2023-09-27T09:54:11.468Z,55.10
2023-09-27T09:57:21.811Z,55.70
2023-09-27T10:00:31.404Z,56.80
2023-09-27T10:03:34.896Z,55.30
2023-09-27T10:06:48.729Z,55.50
2023-09-27T10:09:52.668Z,55.70
2023-09-27T10:12:55.860Z,53.70
2023-09-27T10:15:58.193Z,54.70
2023-09-27T10:19:02.467Z,54.10
2023-09-27T10:22:06.104Z,55.10
2023-09-27T10:25:26.804Z,54.30
2023-09-27T10:28:28.827Z,54.10
2023-09-27T10:31:35.068Z,54.20
2023-09-27T10:34:40.063Z,55.00
2023-09-27T10:38:02.349Z,54.50
2023-09-27T10:41:04.557Z,55.20
2023-09-27T10:44:06.826Z,56.20
2023-09-27T10:47:09.104Z,56.40
2023-09-27T10:50:11.353Z,55.60
2023-09-27T11:03:20.184Z,53.00
2023-09-27T11:06:22.362Z,57.00
2023-09-27T11:09:27.242Z,57.60
2023-09-27T11:12:29.243Z,57.60
2023-09-27T11:15:31.300Z,58.50
2023-09-27T11:18:37.673Z,59.00
2023-09-27T11:21:42.485Z,58.80
2023-09-27T11:24:44.466Z,58.10
2023-09-27T11:27:46.561Z,58.60
2023-09-27T11:30:57.556Z,59.70
2023-09-27T11:34:22.941Z,59.70
2023-09-27T11:37:25.764Z,57.40
2023-09-27T11:40:35.129Z,58.10
2023-09-27T11:43:37.239Z,57.50
2023-09-27T11:46:39.279Z,57.30
2023-09-27T11:49:41.370Z,58.00
2023-09-27T11:52:43.760Z,59.50
2023-09-27T11:55:45.815Z,58.30
2023-09-27T11:58:47.886Z,58.40
2023-09-27T12:01:50.615Z,58.80
2023-09-27T12:04:52.812Z,59.30
2023-09-27T12:08:08.101Z,61.10
2023-09-27T12:11:10.652Z,61.00
2023-09-27T12:14:13.185Z,59.90
2023-09-27T12:17:15.389Z,59.90
2023-09-27T12:20:31.735Z,59.80
2023-09-27T12:23:39.313Z,57.50
2023-09-27T12:26:41.499Z,59.50
2023-09-27T12:29:43.747Z,57.80
2023-09-27T12:32:45.941Z,57.10
2023-09-27T12:35:48.347Z,57.20
2023-09-27T12:38:50.537Z,55.80
2023-09-27T12:41:53.548Z,54.70
2023-09-27T12:44:56.073Z,54.80
2023-09-27T12:47:58.736Z,55.40
2023-09-27T12:51:00.930Z,56.50
2023-09-27T12:54:03.140Z,55.30
2023-09-27T12:57:05.596Z,50.90
2023-09-27T13:00:08.480Z,54.10
2023-09-27T13:03:10.690Z,52.10
2023-09-27T13:06:13.089Z,52.30
2023-09-27T13:09:15.276Z,50.30
2023-09-27T13:12:17.420Z,49.40
2023-09-27T13:15:19.461Z,50.00
2023-09-27T13:18:21.664Z,49.20
2023-09-27T13:21:23.838Z,48.70
2023-09-27T13:24:25.992Z,48.80
2023-09-27T13:27:28.248Z,49.20
2023-09-27T13:30:35.964Z,49.60
2023-09-27T13:33:38.759Z,47.80
2023-09-27T13:36:41.528Z,47.70
2023-09-27T13:39:43.742Z,50.90
2023-09-27T13:42:45.901Z,49.20
2023-09-27T13:45:50.527Z,47.50
2023-09-27T13:48:52.944Z,47.50
2023-09-27T13:51:55.398Z,48.20
2023-09-27T13:54:57.674Z,49.00
2023-09-27T13:57:59.804Z,50.90
2023-09-27T14:01:03.858Z,47.60
2023-09-27T14:04:06.226Z,46.80
2023-09-27T14:07:10.685Z,46.00
2023-09-27T14:10:12.736Z,46.30
2023-09-27T14:13:14.980Z,47.30
2023-09-27T14:16:18.139Z,47.20
2023-09-27T14:19:20.436Z,46.90
2023-09-27T14:22:22.816Z,47.10
2023-09-27T14:25:28.987Z,46.90
2023-09-27T14:28:31.306Z,48.90
2023-09-27T14:31:33.644Z,47.30
2023-09-27T14:37:42.301Z,48.20
2023-09-27T14:40:45.144Z,49.00
2023-09-27T14:43:47.387Z,47.00
2023-09-27T14:46:51.981Z,49.00
2023-09-27T14:49:54.160Z,46.80
2023-09-27T14:52:56.354Z,47.20
2023-09-27T14:56:12.030Z,47.80
2023-09-27T14:59:14.489Z,47.70
2023-09-27T15:02:17.015Z,46.80
2023-09-27T15:05:20.717Z,47.20
2023-09-27T15:08:23.750Z,46.70
2023-09-27T15:11:26.837Z,47.40
2023-09-27T15:14:28.973Z,45.90
2023-09-27T15:17:41.960Z,47.10
2023-09-27T15:20:44.102Z,47.50
2023-09-27T15:23:46.982Z,48.60
2023-09-27T15:26:49.719Z,47.20
2023-09-27T15:29:51.996Z,46.50
2023-09-27T15:32:54.081Z,47.90
2023-09-27T15:35:57.541Z,47.50
2023-09-27T15:39:01.285Z,47.50
2023-09-27T15:42:03.826Z,47.10
2023-09-27T15:45:09.420Z,46.60
2023-09-27T15:48:11.690Z,47.20
2023-09-27T15:51:17.982Z,47.00
2023-09-27T15:54:20.114Z,49.20
2023-09-27T15:57:22.278Z,47.80
2023-09-27T16:00:24.597Z,49.80
2023-09-27T16:03:26.805Z,49.30
2023-09-27T16:06:29.037Z,48.80
2023-09-27T16:09:31.113Z,49.60
2023-09-27T16:12:33.343Z,48.90
2023-09-27T16:15:35.546Z,49.30
2023-09-27T16:18:37.603Z,48.40
2023-09-27T16:21:39.707Z,48.50
2023-09-27T16:24:44.350Z,51.50
2023-09-27T16:27:46.594Z,51.50
2023-09-27T16:30:49.040Z,52.80
2023-09-27T16:33:51.901Z,54.50
2023-09-27T16:36:54.181Z,56.00
2023-09-27T16:39:56.417Z,62.20
2023-09-27T16:42:59.517Z,63.80
2023-09-27T16:46:07.397Z,67.30
2023-09-27T16:49:09.453Z,69.20
2023-09-27T16:52:11.764Z,68.60
2023-09-27T16:55:14.018Z,71.10
2023-09-27T16:58:16.143Z,68.20
2023-09-27T17:01:21.584Z,70.10
2023-09-27T17:04:23.715Z,63.70
2023-09-27T17:07:26.709Z,71.30
2023-09-27T17:10:28.862Z,70.00
2023-09-27T17:13:31.341Z,72.90
2023-09-27T17:16:33.529Z,66.70
2023-09-27T17:19:35.821Z,73.50
2023-09-27T17:22:40.745Z,71.40
2023-09-27T17:25:43.000Z,72.60
2023-09-27T17:28:45.607Z,73.40
2023-09-27T17:31:48.255Z,73.10
2023-09-27T17:34:50.454Z,73.90
2023-09-27T17:37:52.663Z,74.60
2023-09-27T17:40:56.240Z,74.40
2023-09-27T17:43:58.386Z,75.00
2023-09-27T17:47:00.806Z,74.40
2023-09-27T17:50:03.144Z,71.40
2023-09-27T17:53:05.349Z,72.50
2023-09-27T17:56:08.683Z,73.30
2023-09-27T17:59:10.848Z,73.40
2023-09-27T18:02:16.113Z,72.60
2023-09-27T18:05:18.303Z,71.90
2023-09-27T18:08:20.512Z,69.40
2023-09-27T18:11:22.987Z,68.30
2023-09-27T18:14:27.966Z,69.60
2023-09-27T18:17:30.110Z,69.90
2023-09-27T18:20:32.397Z,69.30
2023-09-27T18:23:34.749Z,73.20
2023-09-27T18:26:36.877Z,71.50
2023-09-27T18:29:39.098Z,72.00
2023-09-27T18:32:41.313Z,71.30
2023-09-27T18:35:43.522Z,71.70
2023-09-27T18:38:45.886Z,72.20
2023-09-27T18:41:48.006Z,73.50
2023-09-27T18:44:50.216Z,71.10
2023-09-27T18:47:54.722Z,74.40
2023-09-27T18:50:59.128Z,74.70
2023-09-27T18:54:01.194Z,74.50
2023-09-27T18:57:03.220Z,73.50
2023-09-27T19:00:07.753Z,74.20
2023-09-27T19:03:14.797Z,74.80
2023-09-27T19:06:17.086Z,74.80
2023-09-27T19:09:19.222Z,74.30
2023-09-27T19:12:21.338Z,75.30
2023-09-27T19:15:23.312Z,73.90
2023-09-27T19:18:25.449Z,74.30
2023-09-27T19:21:27.603Z,75.30
2023-09-27T19:24:29.639Z,75.40
2023-09-27T19:27:31.929Z,74.80
2023-09-27T19:30:34.490Z,75.20
2023-09-27T19:33:38.114Z,75.80
2023-09-27T19:36:40.212Z,76.10
2023-09-27T19:39:42.285Z,76.40
2023-09-27T19:42:44.478Z,77.00
2023-09-27T19:45:47.525Z,76.00
2023-09-27T19:48:49.734Z,75.80
2023-09-27T19:51:53.063Z,75.90
2023-09-27T19:55:02.053Z,76.60
2023-09-27T19:58:04.296Z,77.60
2023-09-27T20:01:06.617Z,76.90
2023-09-27T20:04:08.917Z,76.30
2023-09-27T20:07:23.552Z,76.20
2023-09-27T20:10:25.690Z,76.60
2023-09-27T20:13:27.853Z,77.20
2023-09-27T20:16:29.958Z,77.70
2023-09-27T20:19:32.548Z,76.70
2023-09-27T20:22:36.853Z,77.80
2023-09-27T20:25:39.047Z,78.70
2023-09-27T20:28:41.328Z,79.50
2023-09-27T20:31:44.135Z,80.10
2023-09-27T20:34:46.553Z,80.80
2023-09-27T20:37:48.838Z,80.70
2023-09-27T20:40:51.022Z,79.50
2023-09-27T20:43:53.374Z,80.70
2023-09-27T20:46:55.742Z,80.40
2023-09-27T20:49:57.987Z,80.10
2023-09-27T20:53:00.114Z,81.30
2023-09-27T20:56:03.363Z,80.80
2023-09-27T20:59:06.126Z,80.60
2023-09-27T21:02:08.249Z,80.60
2023-09-27T21:05:10.600Z,80.30
2023-09-27T21:08:12.883Z,80.70
2023-09-27T21:11:14.811Z,80.50
2023-09-27T21:14:17.422Z,80.20
2023-09-27T21:17:19.584Z,80.80
2023-09-27T21:20:21.916Z,81.40
2023-09-27T21:23:24.108Z,81.30
2023-09-27T21:26:26.250Z,81.30
2023-09-27T21:29:28.910Z,80.90
2023-09-27T21:32:31.097Z,80.60
2023-09-27T21:35:35.505Z,80.90
2023-09-27T21:38:38.878Z,80.80
2023-09-27T21:41:41.745Z,80.80
2023-09-27T21:44:44.542Z,81.20
2023-09-27T21:47:46.794Z,81.00
2023-09-27T21:50:49.218Z,81.80
2023-09-27T21:53:51.749Z,81.60
2023-09-27T21:57:00.188Z,81.80
2023-09-27T22:00:03.906Z,81.60
2023-09-27T22:03:14.125Z,81.90
2023-09-27T22:06:16.237Z,81.90
2023-09-27T22:09:19.448Z,82.60
2023-09-27T22:12:21.513Z,82.60
2023-09-27T22:15:23.677Z,82.00
2023-09-27T22:18:27.776Z,82.00
2023-09-27T22:21:31.974Z,82.20
2023-09-27T22:24:34.014Z,82.10
2023-09-27T22:27:40.551Z,81.80
2023-09-27T22:30:43.222Z,82.40
2023-09-27T22:33:45.663Z,82.20
2023-09-27T22:36:48.132Z,82.00
2023-09-27T22:39:58.068Z,82.30
2023-09-27T22:43:06.731Z,82.40
2023-09-27T22:46:08.741Z,82.30
2023-09-27T22:49:13.606Z,82.20
2023-09-27T22:52:15.646Z,82.80
2023-09-27T22:55:17.597Z,82.90
2023-09-27T22:58:21.240Z,82.90
2023-09-27T23:01:23.376Z,83.60
2023-09-27T23:04:26.018Z,83.70
2023-09-27T23:07:31.844Z,84.10
2023-09-27T23:10:35.517Z,83.20
2023-09-27T23:13:37.982Z,83.40
2023-09-27T23:16:42.620Z,83.40
2023-09-27T23:19:44.923Z,83.10
2023-09-27T23:22:47.273Z,82.90
2023-09-27T23:25:49.213Z,82.80
2023-09-27T23:28:51.181Z,82.90
2023-09-27T23:31:55.530Z,83.80
2023-09-27T23:35:00.048Z,82.90
2023-09-27T23:38:02.177Z,83.60
2023-09-27T23:41:04.237Z,83.40
2023-09-27T23:44:06.799Z,83.90
2023-09-27T23:47:08.969Z,84.40
2023-09-27T23:50:12.874Z,84.70
2023-09-27T23:53:15.406Z,83.80
2023-09-27T23:56:18.310Z,83.50
2023-09-27T23:59:20.469Z,83.60
